Time;durP1;ratioP1;P1;durP2;ratioP2;P2;SDS_P1;SDS_P2;PMS_P1;PMS_P2;Temp;Humidity;BMP_temperature;BMP_pressure;BME280_temperature;BME280_humidity;BME280_pressure;Samples;Min_cycle;Max_cycle;Signal;HPM_P1;HPM_P2
2022/03/03 00:02:23;;;;;;;17.73;12.90;;;;;;;1.78;90.50;100132.99;1651444;84;21037;-68
2022/03/03 00:04:50;;;;;;;17.10;11.97;;;;;;;1.83;90.16;100129.45;1651272;85;21085;-70
2022/03/03 00:07:17;;;;;;;16.57;11.12;;;;;;;1.77;89.90;100127.38;1649401;85;21038;-65
2022/03/03 00:09:44;;;;;;;16.60;12.37;;;;;;;1.66;89.86;100120.47;1643061;85;21081;-66
2022/03/03 00:12:11;;;;;;;16.77;12.10;;;;;;;1.64;90.07;100120.59;1649708;85;21093;-64
2022/03/03 00:14:38;;;;;;;14.23;11.53;;;;;;;1.66;90.01;100114.72;1648186;84;21033;-65
2022/03/03 00:17:05;;;;;;;13.00;10.67;;;;;;;1.66;89.96;100112.59;1636151;85;21104;-67
2022/03/03 00:19:32;;;;;;;15.63;11.50;;;;;;;1.68;90.12;100115.41;1677932;84;21068;-66
2022/03/03 00:21:59;;;;;;;18.53;12.20;;;;;;;1.71;90.17;100118.24;1641163;85;21585;-68
2022/03/03 00:24:26;;;;;;;15.32;11.70;;;;;;;1.70;90.07;100119.22;1646599;85;21066;-66
2022/03/03 00:26:52;;;;;;;17.13;11.73;;;;;;;1.69;89.99;100114.92;1642953;85;21116;-66
2022/03/03 00:29:20;;;;;;;17.43;12.20;;;;;;;1.68;90.13;100111.47;1646634;85;21607;-65
2022/03/03 00:31:47;;;;;;;14.70;10.67;;;;;;;1.68;90.14;100110.16;1652095;85;21050;-66
2022/03/03 00:34:14;;;;;;;;;;;;;;;1.70;90.19;100100.34;1655303;85;21063;-68
2022/03/03 00:36:46;;;;;;;15.77;11.20;;;;;;;1.67;90.08;100103.23;1639847;85;20214;-66
2022/03/03 00:39:12;;;;;;;15.98;10.98;;;;;;;1.60;90.28;100105.22;1655940;85;21572;-70
2022/03/03 00:41:39;;;;;;;17.10;12.30;;;;;;;1.59;90.44;100102.27;1644873;85;21239;-68
2022/03/03 00:44:09;;;;;;;15.97;11.40;;;;;;;1.59;90.45;100104.89;1656140;85;21038;-66
2022/03/03 00:46:37;;;;;;;17.00;12.40;;;;;;;1.59;90.62;100097.02;1662157;84;21129;-81
2022/03/03 00:49:05;;;;;;;16.20;11.43;;;;;;;1.60;90.62;100099.52;1670613;84;21103;-65
2022/03/03 00:51:32;;;;;;;17.40;11.70;;;;;;;1.59;90.92;100100.95;1685239;84;21519;-66
2022/03/03 00:53:59;;;;;;;16.73;12.13;;;;;;;1.57;90.79;100094.52;1680120;84;21547;-65
2022/03/03 00:56:27;;;;;;;17.67;12.20;;;;;;;1.62;90.76;100092.31;1684491;83;21028;-65
2022/03/03 00:58:53;;;;;;;19.30;12.97;;;;;;;1.67;90.71;100094.52;1672727;84;21014;-66
2022/03/03 01:01:21;;;;;;;22.23;13.73;;;;;;;1.69;90.49;100091.27;1658145;85;21034;-66
2022/03/03 01:03:48;;;;;;;18.40;11.87;;;;;;;1.67;90.18;100086.15;1654025;85;21069;-65
2022/03/03 01:06:17;;;;;;;19.80;12.13;;;;;;;1.63;90.06;100088.71;1675467;84;21545;-69
2022/03/03 01:08:44;;;;;;;15.60;11.00;;;;;;;1.60;90.04;100092.94;1670557;83;21016;-65
2022/03/03 01:11:10;;;;;;;19.40;13.60;;;;;;;1.55;90.30;100089.39;1672681;83;21053;-65
2022/03/03 01:13:39;;;;;;;19.53;12.23;;;;;;;1.49;90.69;100086.00;1660890;85;21059;-66
2022/03/03 01:16:06;;;;;;;19.43;13.53;;;;;;;1.52;91.07;100090.14;1679293;83;21063;-69
2022/03/03 01:18:34;;;;;;;17.43;12.57;;;;;;;1.60;91.00;100083.75;1675541;84;21062;-75
2022/03/03 01:21:01;;;;;;;16.37;12.50;;;;;;;1.68;90.95;100082.57;1662067;85;21069;-66
2022/03/03 01:23:30;;;;;;;16.70;11.53;;;;;;;1.77;91.00;100086.15;1668802;84;21108;-64
2022/03/03 01:25:57;;;;;;;15.67;11.40;;;;;;;1.84;90.68;100087.76;1674021;84;21042;-65
2022/03/03 01:28:24;;;;;;;17.25;12.68;;;;;;;1.82;90.26;100087.07;1672327;84;21022;-66
2022/03/03 01:30:51;;;;;;;17.50;11.85;;;;;;;1.79;90.14;100082.08;1669939;84;21074;-67
2022/03/03 01:33:18;;;;;;;17.57;11.53;;;;;;;1.81;90.33;100087.56;1664142;85;21120;-67
2022/03/03 01:35:46;;;;;;;20.23;13.30;;;;;;;1.84;90.21;100084.64;1674487;84;21727;-71
2022/03/03 01:38:14;;;;;;;16.33;10.80;;;;;;;1.85;90.04;100088.12;1679812;83;21120;-67
2022/03/03 01:40:41;;;;;;;19.52;12.47;;;;;;;1.88;89.99;100085.20;1679469;84;21565;-67
2022/03/03 01:43:08;;;;;;;17.40;12.17;;;;;;;1.85;89.56;100079.73;1689847;83;21060;-66
2022/03/03 01:45:36;;;;;;;19.23;13.07;;;;;;;1.79;89.68;100080.30;1677678;84;21080;-75
2022/03/03 01:48:04;;;;;;;18.97;12.20;;;;;;;1.74;89.93;100079.88;1659427;84;21060;-68
2022/03/03 01:50:31;;;;;;;16.63;12.27;;;;;;;1.65;89.68;100072.32;1676808;85;21108;-69
2022/03/03 01:52:59;;;;;;;16.50;11.90;;;;;;;1.63;89.49;100071.63;1672423;84;21208;-70
2022/03/03 01:55:28;;;;;;;17.07;11.60;;;;;;;1.65;89.85;100067.56;1664450;85;21069;-67
2022/03/03 01:57:58;;;;;;;15.47;9.83;;;;;;;1.71;89.99;100073.11;1618141;87;21042;-69
2022/03/03 02:00:24;;;;;;;16.57;11.50;;;;;;;1.75;89.87;100072.32;1615659;87;21121;-64
2022/03/03 02:02:51;;;;;;;14.93;10.20;;;;;;;1.71;89.44;100067.00;1637718;85;21588;-68
2022/03/03 02:05:19;;;;;;;14.33;10.20;;;;;;;1.72;89.72;100065.55;1648529;86;21077;-65
2022/03/03 02:07:46;;;;;;;16.17;10.97;;;;;;;1.74;89.87;100066.25;1658234;85;21090;-67
2022/03/03 02:10:13;;;;;;;19.53;13.13;;;;;;;1.67;89.73;100068.25;1661600;85;21060;-66
2022/03/03 02:12:40;;;;;;;15.13;11.37;;;;;;;1.63;90.00;100069.00;1659261;85;21064;-64
2022/03/03 02:15:12;;;;;;;17.77;12.57;;;;;;;1.66;90.01;100062.17;1676379;84;21597;-65
2022/03/03 02:17:38;;;;;;;17.97;12.03;;;;;;;1.73;89.93;100065.91;1649932;84;21129;-65
2022/03/03 02:20:07;;;;;;;;;;;;;;;1.75;89.58;100060.03;1672911;84;22420;-65
2022/03/03 02:22:35;;;;;;;15.23;10.73;;;;;;;1.67;89.31;100057.25;1668451;84;20141;-66
2022/03/03 02:25:06;;;;;;;17.03;12.43;;;;;;;1.57;89.59;100056.42;1676246;84;21038;-65
2022/03/03 02:27:34;;;;;;;22.77;11.93;;;;;;;1.52;89.81;100054.69;1660798;85;21082;-66
2022/03/03 02:30:01;;;;;;;17.43;11.37;;;;;;;1.43;90.26;100052.88;1663585;85;21034;-66
2022/03/03 02:32:28;;;;;;;19.13;11.93;;;;;;;1.44;90.75;100051.92;1659429;85;21045;-66
2022/03/03 02:34:55;;;;;;;16.05;11.15;;;;;;;1.48;90.69;100044.11;1622222;86;21604;-73
2022/03/03 02:37:24;;;;;;;16.80;9.93;;;;;;;1.44;90.60;100042.73;1681610;83;21066;-66
2022/03/03 02:39:51;;;;;;;18.30;11.40;;;;;;;1.40;90.75;100038.72;1680907;83;21023;-66
2022/03/03 02:42:19;;;;;;;20.20;14.20;;;;;;;1.35;91.05;100035.99;1697908;83;22076;-68
2022/03/03 02:44:46;;;;;;;19.97;12.30;;;;;;;1.32;91.15;100026.27;1693028;83;21010;-66
2022/03/03 02:47:14;;;;;;;19.13;12.70;;;;;;;1.39;91.50;100025.22;1679620;83;21037;-65
2022/03/03 02:49:42;;;;;;;17.87;11.77;;;;;;;1.48;91.73;100025.72;1684966;83;21037;-66
2022/03/03 02:52:09;;;;;;;15.23;9.90;;;;;;;1.49;91.58;100019.52;1689094;83;21649;-74
2022/03/03 02:54:39;;;;;;;17.37;11.83;;;;;;;1.44;91.27;100021.22;1684089;83;21042;-65
2022/03/03 02:59:54;;;;;;;20.10;12.30;;;;;;;1.38;91.54;100019.16;1674396;83;21105;-67
2022/03/03 03:02:21;;;;;;;15.87;11.10;;;;;;;1.41;91.43;100018.03;1682559;83;21108;-65
2022/03/03 03:04:48;;;;;;;16.23;10.73;;;;;;;1.34;91.67;100021.22;1687756;83;21031;-66
2022/03/03 03:07:16;;;;;;;16.07;10.57;;;;;;;1.32;91.57;100015.27;1649179;85;21456;-70
2022/03/03 03:09:43;;;;;;;16.03;11.20;;;;;;;1.25;91.91;100008.91;1672078;83;21165;-71
2022/03/03 03:12:09;;;;;;;;;;;;;;;1.23;91.80;100004.27;1694273;82;21573;-67
2022/03/03 03:14:36;;;;;;;17.07;11.10;;;;;;;1.26;92.09;100002.70;1665951;84;20095;-67
2022/03/03 03:17:03;;;;;;;16.00;11.57;;;;;;;1.27;92.34;100004.83;1662546;84;21016;-67
2022/03/03 03:19:31;;;;;;;17.00;10.77;;;;;;;1.28;92.39;100001.23;1655305;85;21519;-66
2022/03/03 03:21:59;;;;;;;15.27;11.07;;;;;;;1.26;92.27;99992.20;1635295;87;21095;-71
2022/03/03 03:24:26;;;;;;;14.60;10.50;;;;;;;1.27;92.37;99985.96;1659250;85;21015;-65
2022/03/03 03:26:54;;;;;;;19.23;11.90;;;;;;;1.32;92.50;99990.33;1668990;84;21591;-65
2022/03/03 03:29:24;;;;;;;15.63;10.37;;;;;;;1.32;92.34;99988.20;1666998;84;21097;-69
2022/03/03 03:31:51;;;;;;;16.20;11.17;;;;;;;1.31;92.30;99985.20;1651694;84;21068;-64
2022/03/03 03:34:18;;;;;;;17.42;11.60;;;;;;;1.32;92.51;99987.70;1678743;83;21119;-64
2022/03/03 03:36:45;;;;;;;16.30;10.37;;;;;;;1.30;92.49;99984.39;1669109;84;21088;-66
2022/03/03 03:39:11;;;;;;;;;;;;;;;1.25;92.69;99980.02;1654984;84;21278;-65
2022/03/03 03:41:38;;;;;;;15.33;9.87;;;;;;;1.24;92.84;99975.72;1685596;85;20473;-66
2022/03/03 03:44:06;;;;;;;15.30;10.27;;;;;;;1.25;93.04;99978.70;1670737;83;21032;-70
2022/03/03 03:46:32;;;;;;;16.43;10.90;;;;;;;1.29;92.79;99979.27;1691432;83;21552;-67
2022/03/03 03:49:03;;;;;;;17.33;11.97;;;;;;;1.33;92.72;99970.14;1683812;83;21029;-67
2022/03/03 03:51:31;;;;;;;16.17;10.00;;;;;;;1.39;92.63;99968.77;1691147;83;21106;-66
2022/03/03 03:53:58;;;;;;;14.13;9.17;;;;;;;1.41;92.57;99967.64;1691046;83;21041;-72
2022/03/03 03:56:25;;;;;;;12.17;8.60;;;;;;;1.46;92.54;99968.56;1676157;82;21073;-64
2022/03/03 03:58:52;;;;;;;11.97;9.07;;;;;;;1.49;92.48;99961.73;1670149;84;21611;-67
2022/03/03 04:01:20;;;;;;;14.83;10.20;;;;;;;1.49;92.64;99953.36;1673191;82;21004;-66
2022/03/03 04:03:47;;;;;;;16.82;9.33;;;;;;;1.46;92.65;99951.48;1684732;84;21130;-66
2022/03/03 04:06:16;;;;;;;13.03;9.23;;;;;;;1.45;92.84;99948.04;1670615;84;21020;-66
2022/03/03 04:08:42;;;;;;;14.07;9.67;;;;;;;1.47;92.76;99947.87;1661767;84;21067;-65
2022/03/03 04:11:09;;;;;;;13.13;8.83;;;;;;;1.52;92.55;99948.30;1665455;84;21111;-73
2022/03/03 04:13:37;;;;;;;12.50;8.93;;;;;;;1.48;92.17;99935.10;1679974;83;21001;-65
2022/03/03 04:16:05;;;;;;;12.87;9.23;;;;;;;1.57;92.00;99946.09;1684255;83;21076;-66
2022/03/03 04:18:33;;;;;;;14.07;9.67;;;;;;;1.58;91.77;99952.16;1679920;83;21056;-66
2022/03/03 04:21:01;;;;;;;12.90;9.10;;;;;;;1.58;91.67;99952.16;1711667;83;21030;-65
2022/03/03 04:23:28;;;;;;;11.63;8.37;;;;;;;1.53;91.38;99953.42;1685227;83;20968;-66
2022/03/03 04:25:55;;;;;;;11.73;8.70;;;;;;;1.46;91.21;99948.37;1684776;83;21107;-69
2022/03/03 04:28:22;;;;;;;;;;;;;;;1.38;91.76;99948.25;1684371;83;21072;-69
2022/03/03 04:30:49;;;;;;;13.10;8.77;;;;;;;1.34;91.72;99947.69;1690809;83;20101;-68
2022/03/03 04:33:16;;;;;;;;;;;;;;;1.32;91.71;99946.18;1692214;82;21028;-69
2022/03/03 04:35:43;;;;;;;10.32;8.20;;;;;;;1.34;91.82;99948.18;1691262;82;20134;-66
2022/03/03 04:38:11;;;;;;;11.07;8.23;;;;;;;1.29;91.74;99940.70;1706971;82;21035;-68
2022/03/03 04:40:38;;;;;;;10.97;7.13;;;;;;;1.28;91.75;99944.77;1706551;82;21534;-65
2022/03/03 04:43:04;;;;;;;;;;;;;;;1.24;91.82;99942.90;1695271;84;21097;-64
2022/03/03 04:45:32;;;;;;;9.53;6.17;;;;;;;1.25;91.77;99941.95;1673520;83;20207;-69
2022/03/03 04:47:59;;;;;;;10.98;7.08;;;;;;;1.25;92.18;99943.27;1686729;83;21091;-68
2022/03/03 04:50:27;;;;;;;10.13;7.33;;;;;;;1.19;92.29;99939.88;1690870;83;21054;-67
2022/03/03 04:52:54;;;;;;;10.07;7.43;;;;;;;1.20;91.93;99940.21;1688903;83;20985;-69
2022/03/03 04:55:21;;;;;;;10.95;7.83;;;;;;;1.23;91.88;99941.75;1692718;83;21066;-67
2022/03/03 04:57:48;;;;;;;10.93;8.17;;;;;;;1.25;91.71;99946.38;1699157;82;21061;-66
2022/03/03 05:00:17;;;;;;;11.20;7.83;;;;;;;1.26;91.66;99948.02;1706258;82;21047;-65
2022/03/03 05:02:44;;;;;;;12.57;8.20;;;;;;;1.32;91.79;99946.18;1712623;82;21586;-65
2022/03/03 05:05:11;;;;;;;;;;;;;;;1.38;91.68;99946.94;1707546;82;21053;-67
2022/03/03 05:07:38;;;;;;;11.73;7.60;;;;;;;1.43;91.88;99937.31;1697176;83;20166;-75
2022/03/03 05:10:09;;;;;;;13.25;8.98;;;;;;;1.38;92.06;99940.86;1707144;82;21089;-67
2022/03/03 05:12:36;;;;;;;10.93;8.00;;;;;;;1.35;92.15;99937.52;1707611;82;21029;-68
2022/03/03 05:15:04;;;;;;;;;;;;;;;1.42;92.27;99934.35;1700384;82;21567;-71
2022/03/03 05:17:32;;;;;;;11.10;8.00;;;;;;;1.53;91.84;99939.46;1691593;82;20188;-64
2022/03/03 05:19:59;;;;;;;12.10;7.40;;;;;;;1.48;91.08;99938.55;1706637;82;21066;-69
2022/03/03 05:22:26;;;;;;;10.50;8.03;;;;;;;1.42;90.64;99935.17;1707419;82;21049;-68
2022/03/03 05:24:53;;;;;;;11.55;8.40;;;;;;;1.38;90.65;99935.61;1694652;82;21517;-66
2022/03/03 05:27:20;;;;;;;10.17;6.90;;;;;;;1.41;91.01;99930.05;1706872;82;21010;-65
2022/03/03 05:29:48;;;;;;;11.00;7.42;;;;;;;1.43;91.30;99931.59;1712007;82;21037;-65
2022/03/03 05:32:15;;;;;;;11.53;8.63;;;;;;;1.44;91.52;99935.86;1710971;82;21145;-65
2022/03/03 05:34:41;;;;;;;11.23;8.03;;;;;;;1.43;91.50;99932.91;1711816;82;21018;-65
2022/03/03 05:37:08;;;;;;;11.85;8.50;;;;;;;1.42;90.94;99933.05;1710999;82;21036;-65
2022/03/03 05:39:36;;;;;;;13.83;9.10;;;;;;;1.42;90.76;99935.67;1695395;82;21080;-67
2022/03/03 05:42:03;;;;;;;;;;;;;;;1.48;90.90;99933.79;1700234;82;21069;-66
2022/03/03 05:55:55;;;;;;;7.97;7.03;;;;;;;2.58;85.76;99923.14;1785709;78;22974;-68
2022/03/03 05:58:25;;;;;;;13.77;7.70;;;;;;;2.50;85.67;99926.01;1743904;82;21092;-66
2022/03/03 06:00:56;;;;;;;9.20;7.33;;;;;;;2.28;86.60;99926.39;1747598;81;21556;-65
2022/03/03 06:03:24;;;;;;;11.77;8.47;;;;;;;2.12;87.31;99929.15;1736121;80;21151;-66
2022/03/03 06:05:53;;;;;;;9.93;7.20;;;;;;;2.08;87.55;99926.97;1718742;83;21100;-64
2022/03/03 06:08:34;;;;;;;9.47;7.00;;;;;;;2.07;87.64;99925.30;1697920;82;21171;-65
2022/03/03 06:11:05;;;;;;;9.83;7.77;;;;;;;1.99;87.30;99933.90;1702483;84;21097;-65
2022/03/03 06:13:38;;;;;;;10.77;6.97;;;;;;;1.79;87.38;99923.09;1726595;83;21122;-66
2022/03/03 06:16:09;;;;;;;9.47;6.40;;;;;;;1.58;88.00;99920.14;1732289;82;21931;-64
2022/03/03 06:18:39;;;;;;;8.97;7.73;;;;;;;1.53;88.31;99927.15;1715410;82;21017;-67
2022/03/03 06:21:07;;;;;;;8.27;5.93;;;;;;;1.53;88.29;99918.45;1729969;83;21043;-66
2022/03/03 06:23:35;;;;;;;8.20;7.07;;;;;;;1.54;88.65;99926.20;1713104;83;21686;-66
2022/03/03 06:26:08;;;;;;;8.37;7.13;;;;;;;1.56;88.96;99924.72;1718570;83;21052;-65
2022/03/03 06:28:36;;;;;;;9.87;7.60;;;;;;;1.58;89.01;99924.58;1695980;83;21139;-66
2022/03/03 06:31:06;;;;;;;8.30;6.47;;;;;;;1.53;89.30;99923.70;1726510;82;21521;-64
2022/03/03 06:33:34;;;;;;;8.63;6.40;;;;;;;1.45;89.26;99923.55;1719552;82;21021;-65
2022/03/03 06:36:01;;;;;;;6.73;5.97;;;;;;;1.42;89.08;99915.48;1734924;82;21450;-74
2022/03/03 06:38:28;;;;;;;6.97;5.80;;;;;;;1.43;89.26;99915.84;1696130;82;21009;-69
2022/03/03 06:40:57;;;;;;;9.53;5.97;;;;;;;1.46;89.36;99910.78;1721626;82;21564;-67
2022/03/03 06:43:25;;;;;;;8.10;6.10;;;;;;;1.49;89.54;99909.20;1710249;82;21030;-70
2022/03/03 06:45:54;;;;;;;6.63;5.97;;;;;;;1.51;89.23;99906.77;1726547;83;21654;-65
2022/03/03 06:48:21;;;;;;;6.10;5.20;;;;;;;1.56;89.52;99910.27;1701720;83;21009;-64
2022/03/03 06:50:53;;;;;;;7.30;5.27;;;;;;;1.64;89.56;99914.81;1724070;83;21153;-64
2022/03/03 06:53:28;;;;;;;5.57;4.93;;;;;;;1.67;89.31;99915.36;1711427;83;21516;-66
2022/03/03 06:56:05;;;;;;;6.30;4.80;;;;;;;1.63;88.52;99913.99;1727084;83;21578;-72
2022/03/03 06:58:33;;;;;;;6.55;5.22;;;;;;;1.60;88.02;99914.30;1716296;83;21146;-67
2022/03/03 07:01:05;;;;;;;5.03;4.33;;;;;;;1.59;88.21;99915.74;1724575;82;21544;-65
2022/03/03 07:03:33;;;;;;;5.97;4.93;;;;;;;1.62;88.53;99908.87;1730377;83;21098;-67
2022/03/03 07:06:04;;;;;;;6.27;5.57;;;;;;;1.65;88.25;99906.80;1731575;83;21061;-68
2022/03/03 07:08:33;;;;;;;5.27;4.77;;;;;;;1.66;88.28;99911.09;1717472;83;21469;-65
2022/03/03 07:11:01;;;;;;;8.60;6.10;;;;;;;1.73;88.49;99906.94;1700115;83;21089;-65
2022/03/03 07:13:31;;;;;;;6.60;5.80;;;;;;;1.76;88.80;99908.44;1717900;83;21043;-67
2022/03/03 07:16:19;;;;;;;6.50;5.90;;;;;;;1.77;88.80;99910.08;1705355;83;21061;-65
2022/03/03 07:18:51;;;;;;;6.67;5.97;;;;;;;1.78;88.48;99908.30;1715254;83;21642;-65
2022/03/03 07:21:27;;;;;;;7.13;4.80;;;;;;;1.85;88.19;99912.03;1718050;83;21501;-65
2022/03/03 07:24:04;;;;;;;7.03;5.50;;;;;;;1.81;87.47;99906.23;1709216;83;21142;-65
2022/03/03 07:26:31;;;;;;;;;;;;;;;1.74;87.34;99907.27;1702671;83;21067;-66
2022/03/03 07:29:04;;;;;;;6.67;5.45;;;;;;;1.70;87.61;99913.78;1747199;82;20104;-69
2022/03/03 07:31:35;;;;;;;5.80;5.20;;;;;;;1.68;87.86;99914.41;1718899;82;21132;-65
2022/03/03 07:34:06;;;;;;;6.87;6.17;;;;;;;1.65;87.84;99909.92;1718073;82;21075;-67
2022/03/03 07:36:40;;;;;;;9.00;6.20;;;;;;;1.63;88.00;99908.74;1717741;83;21077;-66
2022/03/03 07:39:10;;;;;;;7.77;5.77;;;;;;;1.66;87.99;99909.78;1696989;83;21194;-67
2022/03/03 07:41:37;;;;;;;8.60;6.63;;;;;;;1.73;87.43;99903.00;1680560;84;21529;-66
2022/03/03 07:44:04;;;;;;;7.05;5.83;;;;;;;1.76;87.30;99900.56;1718129;83;21018;-67
2022/03/03 07:46:32;;;;;;;7.10;5.80;;;;;;;1.77;87.10;99895.63;1730825;83;21035;-70
2022/03/03 07:49:01;;;;;;;5.87;4.97;;;;;;;1.77;87.22;99907.95;1718191;83;21069;-65
2022/03/03 07:51:28;;;;;;;7.70;6.37;;;;;;;1.73;87.38;99900.83;1688093;85;21595;-66
2022/03/03 07:53:54;;;;;;;;;;;;;;;1.65;87.61;99897.60;1690401;84;21215;-65
2022/03/03 07:56:26;;;;;;;9.33;7.37;;;;;;;1.63;87.92;99901.35;1713749;83;20397;-66
2022/03/03 07:59:01;;;;;;;8.53;6.13;;;;;;;1.63;87.94;99905.30;1688785;83;21559;-65
2022/03/03 08:01:31;;;;;;;7.20;5.20;;;;;;;1.61;87.92;99904.61;1704040;83;21021;-65
2022/03/03 08:04:01;;;;;;;8.50;6.27;;;;;;;1.58;88.18;99903.08;1705316;83;21025;-67
2022/03/03 08:06:30;;;;;;;6.40;5.33;;;;;;;1.62;88.22;99902.30;1729370;83;21020;-68
2022/03/03 08:08:59;;;;;;;7.07;6.37;;;;;;;1.71;88.62;99894.44;1720323;83;21488;-66
2022/03/03 08:11:28;;;;;;;7.23;6.20;;;;;;;1.79;88.27;99892.86;1718176;83;21540;-65
2022/03/03 08:13:57;;;;;;;8.37;6.50;;;;;;;1.77;88.12;99889.06;1660263;85;21619;-66
2022/03/03 08:16:24;;;;;;;7.10;5.83;;;;;;;1.78;88.03;99889.42;1678679;84;21584;-68
2022/03/03 08:18:57;;;;;;;6.90;5.93;;;;;;;1.85;87.86;99887.06;1697342;84;21018;-66
2022/03/03 08:21:23;;;;;;;6.53;5.90;;;;;;;1.93;87.87;99888.48;1679250;85;21043;-67
2022/03/03 08:23:50;;;;;;;6.87;6.00;;;;;;;1.97;87.33;99891.16;1663895;84;21168;-66
2022/03/03 08:26:18;;;;;;;8.13;6.43;;;;;;;1.98;86.96;99885.41;1674050;85;21109;-66
2022/03/03 08:28:45;;;;;;;6.27;5.67;;;;;;;1.97;86.80;99889.02;1665844;85;21218;-67
2022/03/03 08:31:17;;;;;;;8.70;6.00;;;;;;;1.95;87.06;99889.98;1671230;84;21067;-66
2022/03/03 08:33:57;;;;;;;6.17;5.57;;;;;;;1.94;87.18;99884.86;1662398;84;21084;-65
2022/03/03 08:36:45;;;;;;;5.13;4.60;;;;;;;1.92;86.95;99890.75;1700237;83;21006;-65
2022/03/03 08:39:14;;;;;;;;;;;;;;;1.97;86.72;99889.84;1662810;85;21591;-71
2022/03/03 08:41:42;;;;;;;6.03;5.43;;;;;;;2.07;86.51;99894.59;1661605;85;20172;-64
2022/03/03 08:44:11;;;;;;;7.07;6.07;;;;;;;2.05;86.01;99887.31;1692503;83;21137;-67
2022/03/03 08:46:41;;;;;;;5.97;5.37;;;;;;;2.00;86.14;99884.31;1696174;84;21217;-65
2022/03/03 08:49:12;;;;;;;7.13;5.90;;;;;;;1.94;86.42;99879.14;1690789;83;21037;-66
2022/03/03 08:51:39;;;;;;;5.73;5.23;;;;;;;1.93;86.70;99884.53;1678380;84;21092;-66
2022/03/03 08:54:07;;;;;;;6.17;5.53;;;;;;;1.96;86.71;99882.95;1673086;84;21006;-65
2022/03/03 08:56:34;;;;;;;7.97;6.93;;;;;;;2.01;86.65;99887.27;1692436;84;21495;-67
2022/03/03 08:59:01;;;;;;;8.93;6.60;;;;;;;2.05;86.58;99882.05;1686799;84;21069;-69
2022/03/03 09:01:29;;;;;;;6.37;5.77;;;;;;;2.05;86.56;99888.63;1693596;84;21018;-65
2022/03/03 09:03:59;;;;;;;7.27;6.53;;;;;;;2.00;86.52;99886.09;1676618;84;21101;-66
2022/03/03 09:06:27;;;;;;;5.63;5.13;;;;;;;1.94;86.59;99882.23;1706015;83;21024;-67
2022/03/03 09:08:54;;;;;;;5.47;4.97;;;;;;;1.97;87.07;99880.64;1689579;83;21090;-65
2022/03/03 09:11:22;;;;;;;6.87;6.17;;;;;;;2.08;87.50;99883.09;1666066;84;21013;-67
2022/03/03 09:13:48;;;;;;;7.37;6.57;;;;;;;2.18;87.35;99883.05;1681628;84;21101;-73
2022/03/03 09:16:17;;;;;;;6.33;5.70;;;;;;;2.24;86.84;99890.84;1674085;84;21080;-68
2022/03/03 09:18:48;;;;;;;5.33;4.63;;;;;;;2.20;85.98;99886.84;1681963;84;21074;-68
2022/03/03 09:21:16;;;;;;;6.73;5.93;;;;;;;2.20;85.63;99888.98;1645345;85;21057;-68
2022/03/03 09:23:43;;;;;;;6.30;5.57;;;;;;;2.18;85.56;99884.86;1669181;84;21565;-67
2022/03/03 09:26:10;;;;;;;6.30;5.27;;;;;;;2.18;85.77;99882.23;1672948;85;21572;-67
2022/03/03 09:28:39;;;;;;;6.13;5.50;;;;;;;2.19;85.95;99879.95;1652052;85;21141;-64
2022/03/03 09:31:06;;;;;;;5.57;5.07;;;;;;;2.24;86.10;99885.58;1670871;84;21030;-66
2022/03/03 09:33:33;;;;;;;7.53;6.53;;;;;;;2.27;86.17;99888.75;1681726;84;21061;-66
2022/03/03 09:36:00;;;;;;;7.47;6.77;;;;;;;2.26;85.93;99888.42;1676807;84;21013;-72
2022/03/03 09:38:27;;;;;;;6.47;5.87;;;;;;;2.24;85.90;99888.20;1669055;84;21512;-67
2022/03/03 09:40:53;;;;;;;7.42;6.72;;;;;;;2.25;85.80;99885.44;1680586;84;21500;-66
2022/03/03 09:43:22;;;;;;;7.20;6.50;;;;;;;2.26;85.45;99883.62;1652863;86;21596;-66
2022/03/03 09:45:50;;;;;;;6.83;6.07;;;;;;;2.20;85.27;99874.52;1695192;83;21021;-66
2022/03/03 09:48:18;;;;;;;4.83;4.33;;;;;;;2.16;85.75;99873.66;1698840;83;21085;-66
2022/03/03 09:50:44;;;;;;;6.03;4.67;;;;;;;2.17;85.96;99873.52;1716221;83;21001;-67
2022/03/03 09:53:16;;;;;;;5.40;4.90;;;;;;;2.19;85.93;99876.83;1709531;83;21045;-66
2022/03/03 09:55:45;;;;;;;5.27;4.77;;;;;;;2.18;85.90;99873.84;1706667;83;21595;-65
2022/03/03 09:58:14;;;;;;;5.53;5.03;;;;;;;2.19;86.01;99866.31;1701194;83;21348;-64
2022/03/03 10:00:41;;;;;;;6.07;5.47;;;;;;;2.20;86.04;99867.12;1700640;82;21042;-69
2022/03/03 10:03:13;;;;;;;6.07;5.47;;;;;;;2.21;86.30;99870.11;1718298;83;21028;-65
2022/03/03 10:05:47;;;;;;;6.53;5.93;;;;;;;2.24;86.25;99865.39;1718379;82;21084;-68
2022/03/03 10:08:22;;;;;;;6.27;5.40;;;;;;;2.27;85.49;99861.14;1734763;82;21026;-64
2022/03/03 10:10:57;;;;;;;6.27;5.67;;;;;;;2.29;85.24;99857.05;1720663;82;21027;-66
2022/03/03 10:13:25;;;;;;;7.20;6.13;;;;;;;2.27;85.23;99861.63;1711995;81;21033;-65
2022/03/03 10:15:56;;;;;;;6.80;5.57;;;;;;;2.28;85.32;99863.27;1749793;81;21058;-69
2022/03/03 10:18:25;;;;;;;7.13;6.30;;;;;;;2.29;85.38;99860.50;1731442;81;21113;-66
2022/03/03 10:20:59;;;;;;;6.07;5.57;;;;;;;2.31;85.35;99855.92;1718608;82;21024;-65
2022/03/03 10:23:30;;;;;;;5.80;5.20;;;;;;;2.37;85.52;99853.19;1718294;82;21056;-64
2022/03/03 10:26:02;;;;;;;5.73;5.23;;;;;;;2.36;85.20;99846.78;1718590;82;21057;-67
2022/03/03 10:28:31;;;;;;;9.17;5.93;;;;;;;2.29;85.28;99851.80;1739573;82;20994;-64
2022/03/03 10:31:08;;;;;;;6.77;6.03;;;;;;;2.31;85.69;99853.78;1739768;82;21009;-66
2022/03/03 10:33:41;;;;;;;7.20;5.93;;;;;;;2.41;85.72;99844.05;1725512;82;21013;-67
2022/03/03 10:36:16;;;;;;;7.20;6.47;;;;;;;2.52;85.70;99843.84;1692176;83;21524;-68
2022/03/03 10:39:01;;;;;;;7.10;6.40;;;;;;;2.58;85.41;99845.52;1718043;82;21508;-68
2022/03/03 10:41:44;;;;;;;6.97;6.27;;;;;;;2.53;85.02;99844.66;1718452;82;20988;-66
2022/03/03 10:44:17;;;;;;;7.10;6.40;;;;;;;2.46;84.98;99837.02;1718030;82;21033;-65
2022/03/03 10:47:11;;;;;;;7.30;6.60;;;;;;;2.44;85.10;99838.48;1718272;82;21568;-66
2022/03/03 10:49:44;;;;;;;6.50;5.90;;;;;;;2.46;85.42;99833.08;1708011;82;21017;-64
2022/03/03 10:52:24;;;;;;;8.60;7.60;;;;;;;2.46;85.46;99833.08;1718411;82;21041;-68
2022/03/03 10:55:10;;;;;;;6.97;6.27;;;;;;;2.48;85.33;99831.12;1717620;83;21607;-65
2022/03/03 10:57:49;;;;;;;9.27;6.27;;;;;;;2.48;85.29;99823.23;1709707;83;21057;-66
2022/03/03 11:00:24;;;;;;;6.50;5.90;;;;;;;2.50;85.44;99818.64;1721240;82;21092;-67
2022/03/03 11:02:59;;;;;;;7.20;6.50;;;;;;;2.55;85.22;99824.79;1718106;82;21041;-66
2022/03/03 11:05:29;;;;;;;7.00;6.30;;;;;;;2.53;85.32;99822.30;1718162;83;21117;-66
2022/03/03 11:07:57;;;;;;;6.70;6.07;;;;;;;2.52;85.46;99828.06;1737850;82;21067;-67
2022/03/03 11:10:29;;;;;;;8.20;7.50;;;;;;;2.59;85.58;99823.51;1732467;82;21044;-65
2022/03/03 11:12:57;;;;;;;9.37;8.43;;;;;;;2.71;85.73;99820.52;1697263;82;21053;-65
2022/03/03 11:15:28;;;;;;;7.50;6.80;;;;;;;2.85;85.60;99823.59;1696885;83;21078;-66
2022/03/03 11:17:56;;;;;;;9.63;6.60;;;;;;;2.89;84.45;99821.81;1698114;83;21072;-70
2022/03/03 11:20:24;;;;;;;7.87;6.73;;;;;;;2.86;83.69;99820.81;1658439;86;21085;-67
2022/03/03 11:22:56;;;;;;;8.43;7.63;;;;;;;2.80;83.68;99823.21;1698064;82;21001;-66
2022/03/03 11:25:36;;;;;;;8.27;6.87;;;;;;;2.75;84.09;99820.19;1718112;82;21064;-68
2022/03/03 11:28:09;;;;;;;7.73;6.93;;;;;;;2.70;84.27;99809.63;1714789;83;21088;-65
2022/03/03 11:30:37;;;;;;;6.63;5.73;;;;;;;2.74;84.85;99808.84;1711869;82;21041;-66
2022/03/03 11:33:27;;;;;;;6.17;5.57;;;;;;;2.83;84.74;99811.08;1715831;82;21091;-66
2022/03/03 11:36:04;;;;;;;8.27;6.40;;;;;;;2.87;84.56;99806.66;1714169;82;21029;-67
2022/03/03 11:38:54;;;;;;;8.07;7.27;;;;;;;2.87;84.43;99801.39;1718124;82;21142;-67
2022/03/03 11:41:25;;;;;;;7.43;6.47;;;;;;;2.89;84.82;99800.75;1689170;83;21092;-65
2022/03/03 11:44:04;;;;;;;5.67;5.10;;;;;;;2.92;84.48;99798.33;1660421;84;21038;-64
2022/03/03 11:46:52;;;;;;;7.00;6.30;;;;;;;2.93;84.75;99806.54;1712492;82;21491;-65
2022/03/03 11:49:23;;;;;;;7.70;7.00;;;;;;;2.84;84.20;99797.73;1717768;82;21067;-66
2022/03/03 11:51:55;;;;;;;5.93;5.30;;;;;;;2.78;84.67;99795.72;1708855;83;21099;-66
2022/03/03 11:54:31;;;;;;;8.43;6.23;;;;;;;2.78;84.68;99795.72;1715764;83;21109;-68
2022/03/03 11:57:10;;;;;;;7.67;5.73;;;;;;;2.80;84.56;99792.44;1716246;83;20951;-66
2022/03/03 11:59:45;;;;;;;9.07;4.97;;;;;;;2.83;84.45;99801.86;1737214;82;21135;-68
2022/03/03 12:02:19;;;;;;;6.40;5.67;;;;;;;2.83;84.35;99796.59;1688198;83;21007;-70